Time;durP1;ratioP1;P1;durP2;ratioP2;P2;SDS_P1;SDS_P2;PMS_P1;PMS_P2;Temp;Humidity;BMP_temperature;BMP_pressure;BME280_temperature;BME280_humidity;BME280_pressure;Samples;Min_cycle;Max_cycle;Signal;HPM_P1;HPM_P2
2021/11/11 00:01:53;;;;;;;;;;;;;;;21.49;59.21;102099.88;7284124;19;153742;-51
2021/11/11 00:04:21;;;;;;;;;;;;;;;21.48;58.96;102099.06;7284311;19;154198;-49
2021/11/11 00:06:48;;;;;;;;;;;;;;;21.47;59.54;102108.63;7283063;19;152749;-50
2021/11/11 00:09:15;;;;;;;;;;;;;;;21.48;59.47;102103.84;7284165;19;152677;-50
2021/11/11 00:11:42;;;;;;;;;;;;;;;21.46;59.26;102101.31;7282948;19;153304;-50
2021/11/11 00:14:10;;;;;;;;;;;;;;;21.49;59.53;102111.13;7284098;19;152185;-50
2021/11/11 00:16:37;;;;;;;;;;;;;;;21.49;59.37;102108.31;7283310;19;153105;-51
2021/11/11 00:19:04;;;;;;;;;;;;;;;21.49;59.09;102108.31;7281279;19;154503;-50
2021/11/11 00:21:31;;;;;;;;;;;;;;;21.48;59.00;102103.84;7291690;19;152121;-50
2021/11/11 00:23:58;;;;;;;;;;;;;;;21.45;59.09;102108.06;7284358;19;153981;-50
2021/11/11 00:26:25;;;;;;;;;;;;;;;21.47;59.18;102111.44;7285400;19;151948;-50
2021/11/11 00:28:51;;;;;;;;;;;;;;;21.46;59.05;102111.72;7285081;19;153703;-49
2021/11/11 00:31:18;;;;;;;;;;;;;;;21.45;59.15;102104.41;7284072;19;154144;-50
2021/11/11 00:33:45;;;;;;;;;;;;;;;21.45;59.13;102112.84;7285520;19;152291;-49
2021/11/11 00:36:13;;;;;;;;;;;;;;;21.44;58.68;102112.00;7284964;19;153352;-49
2021/11/11 00:38:39;;;;;;;;;;;;;;;21.43;58.70;102112.31;7282430;19;153726;-51
2021/11/11 00:41:06;;;;;;;;;;;;;;;21.43;58.82;102113.16;7292458;19;153266;-50
2021/11/11 00:43:33;;;;;;;;;;;;;;;21.43;58.79;102115.13;7282803;19;152475;-50
2021/11/11 00:46:00;;;;;;;;;;;;;;;21.42;59.04;102113.41;7284368;19;151706;-49
2021/11/11 00:48:27;;;;;;;;;;;;;;;21.40;59.16;102119.31;7282033;19;152675;-50
2021/11/11 00:50:54;;;;;;;;;;;;;;;21.38;59.42;102113.16;7281898;19;153351;-50
2021/11/11 00:53:21;;;;;;;;;;;;;;;21.39;59.12;102117.66;7285113;19;151778;-50
2021/11/11 00:55:48;;;;;;;;;;;;;;;21.38;59.20;102118.78;7281044;19;153315;-50
2021/11/11 00:58:15;;;;;;;;;;;;;;;21.38;59.58;102121.59;7283496;19;154087;-49
2021/11/11 01:00:42;;;;;;;;;;;;;;;21.35;59.29;102110.09;7283424;19;152009;-50
2021/11/11 01:03:10;;;;;;;;;;;;;;;21.32;59.54;102110.63;7288392;19;152880;-51
2021/11/11 01:05:40;;;;;;;;;;;;;;;21.31;59.91;102115.41;7278040;19;151915;-50
2021/11/11 01:08:07;;;;;;;;;;;;;;;21.30;60.16;102113.75;7282525;19;153189;-50
2021/11/11 01:10:34;;;;;;;;;;;;;;;21.29;60.18;102112.06;7281948;19;152178;-50
2021/11/11 01:13:01;;;;;;;;;;;;;;;21.30;60.19;102108.13;7284727;19;151800;-50
2021/11/11 01:15:30;;;;;;;;;;;;;;;21.30;60.26;102111.75;7283369;19;152026;-50
2021/11/11 01:17:58;;;;;;;;;;;;;;;21.28;59.98;102099.13;7282325;19;154695;-49
2021/11/11 01:20:25;;;;;;;;;;;;;;;21.28;59.97;102113.19;7283195;19;152313;-49
2021/11/11 01:22:54;;;;;;;;;;;;;;;21.28;60.21;102104.75;7283776;19;153455;-49
2021/11/11 01:25:22;;;;;;;;;;;;;;;21.25;60.18;102108.13;7289128;19;153577;-50
2021/11/11 01:27:49;;;;;;;;;;;;;;;21.23;60.26;102104.75;7282591;19;152832;-50
2021/11/11 01:30:16;;;;;;;;;;;;;;;21.22;60.06;102117.13;7279739;19;153273;-50
2021/11/11 01:32:43;;;;;;;;;;;;;;;21.24;60.20;102110.09;7280889;19;151978;-49
2021/11/11 01:35:12;;;;;;;;;;;;;;;21.21;59.94;102109.84;7282568;19;152085;-49
2021/11/11 01:37:41;;;;;;;;;;;;;;;21.19;59.66;102107.31;7281802;19;154014;-50
2021/11/11 01:40:08;;;;;;;;;;;;;;;21.18;59.92;102110.38;7281258;19;151815;-49
2021/11/11 01:42:40;;;;;;;;;;;;;;;21.14;60.23;102109.28;7280540;19;153544;-50
2021/11/11 01:45:08;;;;;;;;;;;;;;;21.14;59.92;102109.28;7281622;19;153566;-49
2021/11/11 01:47:36;;;;;;;;;;;;;;;21.12;60.07;102105.88;7288941;19;151820;-50
2021/11/11 01:50:04;;;;;;;;;;;;;;;21.12;60.21;102100.28;7280382;19;155612;-49
2021/11/11 01:52:31;;;;;;;;;;;;;;;21.13;59.76;102099.16;7282893;19;152319;-49
2021/11/11 01:54:58;;;;;;;;;;;;;;;21.06;59.95;102096.63;7281656;19;153732;-50
2021/11/11 01:57:25;;;;;;;;;;;;;;;21.05;60.15;102096.91;7281003;19;154352;-50
2021/11/11 01:59:53;;;;;;;;;;;;;;;21.04;60.34;102092.41;7279750;19;151627;-49
2021/11/11 02:02:32;;;;;;;;;;;;;;;21.00;60.38;102089.31;7279780;19;153287;-49
2021/11/11 02:04:59;;;;;;;;;;;;;;;21.02;60.08;102089.88;7280836;19;155572;-50
2021/11/11 02:07:26;;;;;;;;;;;;;;;20.98;60.28;102088.78;7281477;19;152195;-50
2021/11/11 02:10:05;;;;;;;;;;;;;;;21.01;60.13;102084.53;7290968;19;152837;-50
2021/11/11 02:12:32;;;;;;;;;;;;;;;20.97;60.21;102086.25;7287922;19;151551;-49
2021/11/11 02:14:59;;;;;;;;;;;;;;;20.93;60.61;102091.59;7287974;19;153303;-50
2021/11/11 02:17:32;;;;;;;;;;;;;;;20.91;60.38;102081.75;7286601;19;152562;-49
2021/11/11 02:20:08;;;;;;;;;;;;;;;20.89;60.78;102082.06;7288498;19;152221;-50
2021/11/11 02:22:35;;;;;;;;;;;;;;;20.90;60.73;102085.69;7288381;19;152898;-50
2021/11/11 02:25:07;;;;;;;;;;;;;;;20.85;60.52;102084.56;7287300;19;153901;-50
2021/11/11 02:27:34;;;;;;;;;;;;;;;20.86;60.81;102086.25;7287988;19;151496;-49
2021/11/11 02:30:01;;;;;;;;;;;;;;;20.83;60.74;102084.00;7287582;19;153444;-50
2021/11/11 02:32:30;;;;;;;;;;;;;;;20.82;60.93;102084.28;7292979;19;153500;-50
2021/11/11 02:34:58;;;;;;;;;;;;;;;20.82;60.99;102084.28;7286078;19;152189;-50
2021/11/11 02:37:27;;;;;;;;;;;;;;;20.81;60.97;102080.63;7283773;19;153293;-49
2021/11/11 02:39:58;;;;;;;;;;;;;;;20.85;60.76;102073.31;7284552;19;152653;-51
2021/11/11 02:42:26;;;;;;;;;;;;;;;20.82;60.78;102076.72;7287597;19;152273;-49
2021/11/11 02:44:57;;;;;;;;;;;;;;;20.79;61.14;102080.09;7286913;19;152519;-50
2021/11/11 02:47:24;;;;;;;;;;;;;;;20.83;60.84;102071.94;7285578;19;151992;-50
2021/11/11 02:49:51;;;;;;;;;;;;;;;20.80;60.84;102070.53;7287439;19;154216;-50
2021/11/11 02:52:18;;;;;;;;;;;;;;;20.78;60.98;102063.50;7292749;19;153340;-50
2021/11/11 02:54:45;;;;;;;;;;;;;;;20.79;60.72;102063.25;7285339;19;152850;-49
2021/11/11 02:57:22;;;;;;;;;;;;;;;20.79;60.83;102062.41;7283296;19;153384;-50
2021/11/11 02:59:50;;;;;;;;;;;;;;;20.77;60.56;102061.81;7287150;19;151916;-49
2021/11/11 03:02:19;;;;;;;;;;;;;;;20.76;60.90;102054.50;7286086;19;151914;-49
2021/11/11 03:04:46;;;;;;;;;;;;;;;20.80;60.55;102052.84;7285624;19;154121;-50
2021/11/11 03:07:13;;;;;;;;;;;;;;;20.76;60.56;102052.56;7286004;19;151994;-50
2021/11/11 03:09:40;;;;;;;;;;;;;;;20.75;60.95;102050.03;7284482;19;152028;-49
2021/11/11 03:12:08;;;;;;;;;;;;;;;20.73;60.81;102058.75;7285167;19;154323;-50
2021/11/11 03:14:36;;;;;;;;;;;;;;;20.70;60.91;102062.13;7286401;19;151997;-49
2021/11/11 03:17:05;;;;;;;;;;;;;;;20.70;61.04;102058.47;7278969;19;152329;-50
2021/11/11 03:19:35;;;;;;;;;;;;;;;20.67;60.65;102057.06;7284057;19;152323;-50
2021/11/11 03:22:11;;;;;;;;;;;;;;;20.68;61.06;102060.72;7286684;19;152864;-49
2021/11/11 03:24:40;;;;;;;;;;;;;;;20.66;60.73;102057.34;7282869;19;153787;-50
2021/11/11 03:27:10;;;;;;;;;;;;;;;20.67;60.58;102051.44;7286331;19;152564;-50
2021/11/11 03:29:40;;;;;;;;;;;;;;;20.69;60.50;102051.16;7282579;19;153058;-49
2021/11/11 03:32:14;;;;;;;;;;;;;;;20.66;60.91;102055.41;7284785;19;152314;-50
2021/11/11 03:34:47;;;;;;;;;;;;;;;20.63;60.90;102061.56;7285991;19;152357;-49
2021/11/11 03:37:16;;;;;;;;;;;;;;;20.62;60.49;102057.09;7290711;19;153419;-50
2021/11/11 03:39:43;;;;;;;;;;;;;;;20.65;60.73;102059.31;7286288;19;152315;-49
2021/11/11 03:42:11;;;;;;;;;;;;;;;20.62;60.87;102053.44;7284073;19;153316;-49
2021/11/11 03:44:40;;;;;;;;;;;;;;;20.61;60.87;102055.41;7284854;19;153885;-50
2021/11/11 03:47:10;;;;;;;;;;;;;;;20.56;60.96;102052.59;7285863;19;152040;-51
2021/11/11 03:49:40;;;;;;;;;;;;;;;20.56;60.69;102058.22;7283248;19;152224;-50
2021/11/11 03:52:10;;;;;;;;;;;;;;;20.56;60.55;102063.81;7282686;19;152403;-51
2021/11/11 03:54:41;;;;;;;;;;;;;;;20.57;60.89;102056.25;7285137;19;151670;-49
2021/11/11 03:57:08;;;;;;;;;;;;;;;20.55;60.63;102069.72;7285308;19;153623;-50
2021/11/11 03:59:37;;;;;;;;;;;;;;;20.53;60.77;102072.81;7289216;19;154011;-50
2021/11/11 04:02:05;;;;;;;;;;;;;;;20.54;60.70;102070.81;7282942;19;153389;-50
2021/11/11 04:04:33;;;;;;;;;;;;;;;20.51;60.63;102066.63;7283958;19;153949;-49
2021/11/11 04:07:00;;;;;;;;;;;;;;;20.52;60.55;102057.09;7283246;19;152230;-50
2021/11/11 04:09:27;;;;;;;;;;;;;;;20.52;60.54;102064.66;7283593;19;152639;-49
2021/11/11 04:11:54;;;;;;;;;;;;;;;20.50;60.70;102075.31;7283592;19;153736;-50
2021/11/11 04:14:21;;;;;;;;;;;;;;;20.52;60.80;102067.47;7284953;19;152439;-50
2021/11/11 04:16:49;;;;;;;;;;;;;;;20.49;60.90;102068.03;7283132;19;153317;-50
2021/11/11 04:19:16;;;;;;;;;;;;;;;20.47;60.57;102070.28;7280282;19;153972;-50
2021/11/11 04:21:43;;;;;;;;;;;;;;;20.46;60.65;102074.19;7289385;19;152590;-49
2021/11/11 04:24:11;;;;;;;;;;;;;;;20.44;61.08;102074.50;7283108;19;153419;-50
2021/11/11 04:26:48;;;;;;;;;;;;;;;20.42;60.66;102079.53;7285500;19;152228;-50
2021/11/11 04:29:25;;;;;;;;;;;;;;;20.42;60.77;102079.53;7281551;19;154760;-49
2021/11/11 04:31:56;;;;;;;;;;;;;;;20.41;60.91;102077.84;7282058;19;153387;-50
2021/11/11 04:34:24;;;;;;;;;;;;;;;20.41;60.60;102075.03;7285027;19;152020;-49
2021/11/11 04:42:26;;;;;;;;;;;;;;;20.38;61.09;102070.84;7285086;19;151510;-49
2021/11/11 05:04:59;;;;;;;;;;;;;;;20.36;60.71;102075.03;7290377;19;152931;-50
2021/11/11 05:07:26;;;;;;;;;;;;;;;20.33;60.49;102072.78;7282849;19;152347;-49
2021/11/11 05:09:53;;;;;;;;;;;;;;;20.31;60.68;102078.69;7281163;19;152389;-50
2021/11/11 05:12:20;;;;;;;;;;;;;;;20.34;60.30;102068.88;7281998;19;153689;-50
2021/11/11 05:14:47;;;;;;;;;;;;;;;20.33;60.35;102070.84;7284055;19;152033;-50
2021/11/11 05:17:14;;;;;;;;;;;;;;;20.33;60.57;102075.59;7282178;19;153314;-50
2021/11/11 05:19:42;;;;;;;;;;;;;;;20.30;60.76;102076.19;7275682;19;153471;-49
2021/11/11 05:22:09;;;;;;;;;;;;;;;20.26;60.52;102073.03;7281378;19;152021;-49
2021/11/11 05:24:36;;;;;;;;;;;;;;;20.29;60.95;102077.25;7283297;19;152618;-50
2021/11/11 05:27:04;;;;;;;;;;;;;;;20.31;61.20;102080.66;7290227;19;153582;-49
2021/11/11 05:29:32;;;;;;;;;;;;;;;20.22;61.06;102087.91;7281912;19;152056;-49
2021/11/11 05:31:59;;;;;;;;;;;;;;;20.21;61.19;102087.09;7281839;19;153348;-49
2021/11/11 05:34:26;;;;;;;;;;;;;;;20.23;61.32;102089.59;7280685;19;152346;-49
2021/11/11 05:36:53;;;;;;;;;;;;;;;20.22;61.58;102090.69;7283162;19;152802;-50
2021/11/11 05:39:20;;;;;;;;;;;;;;;20.20;61.19;102093.81;7281884;19;153969;-49
2021/11/11 05:41:47;;;;;;;;;;;;;;;20.19;61.35;102086.50;7277036;19;152319;-49
2021/11/11 05:44:14;;;;;;;;;;;;;;;20.20;61.59;102084.53;7285521;19;153630;-50
2021/11/11 05:46:41;;;;;;;;;;;;;;;20.19;61.13;102092.13;7282247;19;153441;-50
2021/11/11 05:49:08;;;;;;;;;;;;;;;20.20;61.42;102093.81;7294376;19;152123;-49
2021/11/11 05:51:35;;;;;;;;;;;;;;;20.17;61.59;102087.91;7287282;19;154125;-49
2021/11/11 05:54:02;;;;;;;;;;;;;;;20.20;61.29;102087.34;7287662;19;152082;-49
2021/11/11 05:56:28;;;;;;;;;;;;;;;20.18;61.27;102090.41;7283768;19;154808;-50
2021/11/11 05:58:56;;;;;;;;;;;;;;;20.19;61.61;102080.03;7287674;19;154138;-49
2021/11/11 06:01:25;;;;;;;;;;;;;;;20.19;61.64;102086.50;7288765;19;152116;-49
2021/11/11 06:03:52;;;;;;;;;;;;;;;20.17;61.62;102087.91;7284909;19;153586;-50
2021/11/11 06:06:19;;;;;;;;;;;;;;;20.16;61.22;102094.66;7283494;19;153956;-50
2021/11/11 06:08:46;;;;;;;;;;;;;;;20.16;61.17;102091.84;7285647;19;152389;-50
2021/11/11 06:11:13;;;;;;;;;;;;;;;20.16;61.22;102095.50;7294239;19;153504;-49
2021/11/11 06:13:41;;;;;;;;;;;;;;;20.16;61.31;102092.69;7288214;19;152421;-51
2021/11/11 06:16:08;;;;;;;;;;;;;;;20.14;61.10;102091.25;7286112;19;153914;-50
2021/11/11 06:18:35;;;;;;;;;;;;;;;20.14;61.26;102091.25;7286906;19;154402;-50
2021/11/11 06:21:05;;;;;;;;;;;;;;;20.09;61.49;102089.28;7287032;19;151747;-49
2021/11/11 06:23:40;;;;;;;;;;;;;;;20.10;61.51;102093.78;7287984;19;152023;-49
2021/11/11 06:26:14;;;;;;;;;;;;;;;20.10;61.22;102102.19;7286102;19;152702;-49
2021/11/11 06:28:47;;;;;;;;;;;;;;;20.13;61.16;102098.81;7286232;19;152046;-49
2021/11/11 06:31:14;;;;;;;;;;;;;;;20.15;61.04;102099.41;7285672;19;152967;-48
2021/11/11 06:33:41;;;;;;;;;;;;;;;20.15;61.43;102092.94;7293553;19;154022;-48
2021/11/11 06:36:08;;;;;;;;;;;;;;;20.11;61.05;102089.03;7283910;19;152334;-49
2021/11/11 06:38:35;;;;;;;;;;;;;;;20.08;61.59;102092.38;7286717;19;154998;-49
2021/11/11 06:41:02;;;;;;;;;;;;;;;20.05;61.68;102088.16;7287094;19;152002;-49
2021/11/11 06:43:29;;;;;;;;;;;;;;;20.15;61.78;102095.75;7285651;19;153422;-48
2021/11/11 06:45:56;;;;;;;;;;;;;;;20.18;61.60;102101.66;7283696;19;154469;-49
2021/11/11 06:48:23;;;;;;;;;;;;;;;20.20;61.74;102102.22;7287057;19;152390;-49
2021/11/11 06:50:50;;;;;;;;;;;;;;;20.23;62.04;102101.66;7284425;19;153699;-49
2021/11/11 06:53:18;;;;;;;;;;;;;;;20.24;62.24;102097.75;7285435;19;154805;-50
2021/11/11 06:55:46;;;;;;;;;;;;;;;20.25;62.30;102092.97;7292283;19;152318;-49
2021/11/11 06:58:14;;;;;;;;;;;;;;;20.26;62.63;102103.91;7280796;19;154432;-49
2021/11/11 07:00:42;;;;;;;;;;;;;;;20.30;62.93;102105.09;7286757;19;151908;-49
2021/11/11 07:03:09;;;;;;;;;;;;;;;20.36;63.51;102103.94;7284905;19;153475;-49
2021/11/11 07:05:41;;;;;;;;;;;;;;;20.41;63.78;102112.38;7284304;19;154247;-50
2021/11/11 07:08:10;;;;;;;;;;;;;;;20.46;63.76;102116.31;7288136;19;151946;-50
2021/11/11 07:10:38;;;;;;;;;;;;;;;20.50;63.37;102125.84;7282643;19;152928;-49
2021/11/11 07:13:05;;;;;;;;;;;;;;;20.53;64.08;102128.13;7283325;19;154981;-50
2021/11/11 07:15:33;;;;;;;;;;;;;;;20.58;63.94;102133.75;7291396;19;152272;-50
2021/11/11 07:18:00;;;;;;;;;;;;;;;20.64;64.57;102133.44;7285059;19;153262;-50
2021/11/11 07:20:27;;;;;;;;;;;;;;;20.72;63.24;102138.50;7284359;19;152190;-51
2021/11/11 07:22:59;;;;;;;;;;;;;;;20.76;63.38;102135.97;7285526;19;152894;-51
2021/11/11 07:25:27;;;;;;;;;;;;;;;20.81;62.71;102138.78;7284232;19;153022;-50
2021/11/11 07:27:55;;;;;;;;;;;;;;;20.85;62.51;102140.75;7285582;19;152506;-50
2021/11/11 07:30:25;;;;;;;;;;;;;;;20.79;57.52;102141.88;7284953;19;153185;-49
2021/11/11 07:32:52;;;;;;;;;;;;;;;20.92;59.41;102148.91;7285013;19;154530;-51
2021/11/11 07:35:19;;;;;;;;;;;;;;;20.98;58.92;102149.75;7285370;19;152665;-50
2021/11/11 07:37:49;;;;;;;;;;;;;;;21.03;58.56;102158.19;7292013;19;153214;-51
2021/11/11 07:40:18;;;;;;;;;;;;;;;21.05;58.44;102161.53;7286134;19;151854;-51
2021/11/11 07:42:45;;;;;;;;;;;;;;;21.09;58.18;102168.25;7285245;19;152333;-51
2021/11/11 07:45:13;;;;;;;;;;;;;;;21.12;58.07;102168.53;7283879;19;153414;-50
2021/11/11 07:47:40;;;;;;;;;;;;;;;21.16;58.00;102166.06;7285700;19;151882;-51
2021/11/11 07:50:07;;;;;;;;;;;;;;;21.18;58.21;102159.00;7284386;19;153309;-50
2021/11/11 07:52:35;;;;;;;;;;;;;;;21.22;57.70;102162.09;7282750;19;153462;-50
2021/11/11 07:55:02;;;;;;;;;;;;;;;21.26;57.47;102175.28;7284796;19;151914;-50
2021/11/11 07:57:31;;;;;;;;;;;;;;;21.26;57.70;102169.69;7280359;19;152930;-51
2021/11/11 07:59:59;;;;;;;;;;;;;;;21.29;57.48;102169.13;7284816;19;154425;-50
2021/11/11 08:02:27;;;;;;;;;;;;;;;21.30;57.49;102159.53;7284866;19;153174;-51
2021/11/11 08:04:54;;;;;;;;;;;;;;;21.34;57.10;102168.28;7282884;19;153630;-51
2021/11/11 08:07:21;;;;;;;;;;;;;;;21.37;57.07;102173.31;7283134;19;152008;-50
2021/11/11 08:09:48;;;;;;;;;;;;;;;21.40;56.75;102171.91;7285117;19;152707;-50
2021/11/11 08:12:16;;;;;;;;;;;;;;;21.39;56.74;102168.28;7280362;19;154141;-51
2021/11/11 08:14:44;;;;;;;;;;;;;;;21.41;56.82;102166.00;7283955;19;151922;-50
2021/11/11 08:17:11;;;;;;;;;;;;;;;21.44;56.22;102161.78;7283527;19;152821;-50
2021/11/11 08:19:39;;;;;;;;;;;;;;;21.45;56.45;102167.09;7283371;19;153800;-50
2021/11/11 08:22:07;;;;;;;;;;;;;;;21.44;55.83;102162.59;7291874;19;152188;-50
2021/11/11 08:24:41;;;;;;;;;;;;;;;21.47;56.26;102162.06;7281071;19;154303;-51
2021/11/11 08:27:08;;;;;;;;;;;;;;;21.36;53.64;102162.34;7284006;19;151960;-50
2021/11/11 08:29:35;;;;;;;;;;;;;;;21.15;53.81;102164.38;7283427;19;152792;-51
2021/11/11 08:32:03;;;;;;;;;;;;;;;21.24;53.99;102162.66;7283256;19;153858;-51
2021/11/11 08:34:30;;;;;;;;;;;;;;;21.29;54.32;102169.13;7282388;19;151891;-50
2021/11/11 08:36:57;;;;;;;;;;;;;;;21.32;54.45;102164.03;7284061;19;153850;-49
2021/11/11 08:39:24;;;;;;;;;;;;;;;21.33;54.35;102160.97;7280863;19;155173;-48
2021/11/11 08:41:52;;;;;;;;;;;;;;;21.35;55.02;102172.75;7263394;19;154019;-49
2021/11/11 08:44:20;;;;;;;;;;;;;;;21.36;54.85;102171.63;7280424;19;152668;-49
2021/11/11 08:46:49;;;;;;;;;;;;;;;21.37;54.78;102170.50;7283964;19;151839;-48
2021/11/11 08:49:17;;;;;;;;;;;;;;;21.37;55.12;102173.31;7283525;19;153221;-51
2021/11/11 08:51:44;;;;;;;;;;;;;;;21.37;54.98;102175.28;7279682;19;153473;-51
2021/11/11 08:54:11;;;;;;;;;;;;;;;21.37;54.71;102180.91;7282423;19;151790;-50
2021/11/11 08:56:38;;;;;;;;;;;;;;;21.37;54.86;102176.13;7283965;19;152015;-50
2021/11/11 08:59:05;;;;;;;;;;;;;;;21.39;55.29;102178.66;7276930;19;153945;-51
2021/11/11 09:01:32;;;;;;;;;;;;;;;21.38;54.82;102172.19;7279021;19;152346;-51
2021/11/11 09:03:59;;;;;;;;;;;;;;;21.37;55.09;102164.03;7277744;19;152896;-50
2021/11/11 09:06:28;;;;;;;;;;;;;;;21.38;55.07;102171.34;7289275;19;151910;-51
2021/11/11 09:08:55;;;;;;;;;;;;;;;21.36;55.28;102168.81;7282090;19;153524;-51
2021/11/11 09:11:22;;;;;;;;;;;;;;;21.36;54.85;102170.78;7276850;19;153053;-51
2021/11/11 09:13:49;;;;;;;;;;;;;;;21.35;54.74;102169.13;7281989;19;152132;-51
2021/11/11 09:16:21;;;;;;;;;;;;;;;21.35;55.01;102171.94;7283557;19;152854;-50
2021/11/11 09:18:50;;;;;;;;;;;;;;;21.34;54.77;102167.44;7287701;19;154047;-50
2021/11/11 09:21:18;;;;;;;;;;;;;;;21.34;54.70;102168.28;7289570;19;152506;-51
2021/11/11 09:23:47;;;;;;;;;;;;;;;21.34;54.64;102168.28;7288812;19;153427;-51
2021/11/11 09:26:14;;;;;;;;;;;;;;;21.33;54.70;102169.41;7294593;19;154318;-51
2021/11/11 09:28:41;;;;;;;;;;;;;;;21.33;54.84;102162.94;7286906;19;151622;-51
2021/11/11 09:31:10;;;;;;;;;;;;;;;21.35;54.85;102171.94;7284867;19;153407;-50
2021/11/11 09:33:38;;;;;;;;;;;;;;;21.35;54.75;102161.50;7287680;19;152119;-51
2021/11/11 09:36:05;;;;;;;;;;;;;;;21.34;54.59;102161.81;7287289;19;153407;-50
2021/11/11 09:38:32;;;;;;;;;;;;;;;21.34;54.83;102167.44;7285630;19;153176;-50
2021/11/11 09:40:59;;;;;;;;;;;;;;;21.34;54.57;102159.84;7287264;19;151660;-51
2021/11/11 09:43:34;;;;;;;;;;;;;;;21.32;54.87;102164.91;7284853;19;152744;-51
2021/11/11 09:46:03;;;;;;;;;;;;;;;21.32;54.60;102153.66;7284226;19;153963;-50
2021/11/11 09:48:32;;;;;;;;;;;;;;;21.32;54.73;102153.66;7295510;19;151764;-51
2021/11/11 09:50:59;;;;;;;;;;;;;;;21.33;54.90;102158.16;7285882;19;154649;-50
2021/11/11 09:53:26;;;;;;;;;;;;;;;21.32;54.57;102156.47;7288167;19;152667;-51
2021/11/11 10:00:53;;;;;;;;;;;;;;;21.30;54.45;102156.72;7283905;19;152094;-50
2021/11/11 10:03:21;;;;;;;;;;;;;;;21.29;54.83;102160.69;7284554;19;152500;-51
2021/11/11 10:05:49;;;;;;;;;;;;;;;21.27;54.64;102165.75;7285832;19;153900;-51
2021/11/11 10:08:18;;;;;;;;;;;;;;;21.26;54.72;102163.22;7289121;19;151924;-50
2021/11/11 10:10:45;;;;;;;;;;;;;;;21.27;54.59;102160.13;7292076;19;153427;-50
2021/11/11 10:13:15;;;;;;;;;;;;;;;21.26;54.75;102155.63;7288448;19;151669;-50
2021/11/11 10:15:45;;;;;;;;;;;;;;;21.23;54.63;102156.19;7287697;19;154293;-52
2021/11/11 10:18:31;;;;;;;;;;;;;;;21.23;54.67;102158.16;7286892;19;154264;-51
2021/11/11 10:21:01;;;;;;;;;;;;;;;21.23;54.82;102150.56;7285380;19;152358;-50
2021/11/11 10:23:28;;;;;;;;;;;;;;;21.24;54.58;102157.88;7287878;19;152610;-51
2021/11/11 10:25:57;;;;;;;;;;;;;;;21.25;54.54;102150.31;7285780;19;153137;-50
2021/11/11 10:28:37;;;;;;;;;;;;;;;21.23;54.55;102152.53;7285591;19;151890;-50
2021/11/11 10:31:11;;;;;;;;;;;;;;;21.21;54.67;102158.44;7283909;19;152352;-50
2021/11/11 10:33:38;;;;;;;;;;;;;;;21.19;54.99;102159.88;7294057;19;153460;-51
2021/11/11 10:36:06;;;;;;;;;;;;;;;21.17;54.78;102154.50;7284312;19;154458;-51
2021/11/11 10:38:33;;;;;;;;;;;;;;;21.15;54.95;102161.56;7287137;19;153618;-51
2021/11/11 10:40:59;;;;;;;;;;;;;;;21.15;54.89;102159.59;7285487;19;152520;-51
2021/11/11 10:43:28;;;;;;;;;;;;;;;21.15;55.01;102161.56;7284884;19;153251;-51
2021/11/11 10:45:56;;;;;;;;;;;;;;;21.14;54.66;102160.72;7279328;19;154019;-49
2021/11/11 10:48:25;;;;;;;;;;;;;;;21.13;54.83;102160.97;7285478;19;151779;-49
2021/11/11 10:50:53;;;;;;;;;;;;;;;21.09;54.64;102157.88;7284239;19;152689;-48
2021/11/11 10:53:22;;;;;;;;;;;;;;;21.07;54.86;102156.47;7283456;19;154434;-49
2021/11/11 10:55:49;;;;;;;;;;;;;;;21.07;55.21;102153.66;7292192;19;152139;-49
2021/11/11 10:58:17;;;;;;;;;;;;;;;21.11;54.58;102150.00;7283372;19;153295;-49
2021/11/11 11:00:47;;;;;;;;;;;;;;;21.03;55.08;102155.38;7281411;19;152421;-48
2021/11/11 11:03:17;;;;;;;;;;;;;;;21.03;55.14;102152.56;7283822;19;153771;-50
2021/11/11 11:06:04;;;;;;;;;;;;;;;21.03;54.75;102153.38;7285883;19;153359;-50
2021/11/11 11:08:32;;;;;;;;;;;;;;;21.03;54.68;102150.56;7286411;19;151725;-51
2021/11/11 11:11:02;;;;;;;;;;;;;;;21.04;55.14;102141.00;7286192;19;153171;-50
2021/11/11 11:13:32;;;;;;;;;;;;;;;21.05;54.85;102142.69;7286610;19;153433;-50
2021/11/11 11:16:02;;;;;;;;;;;;;;;21.09;54.55;102140.16;7292028;19;152135;-50
2021/11/11 11:18:32;;;;;;;;;;;;;;;21.10;54.37;102144.66;7285483;19;154063;-50
2021/11/11 11:21:01;;;;;;;;;;;;;;;21.06;54.75;102146.34;7286883;19;152238;-50
2021/11/11 11:23:30;;;;;;;;;;;;;;;21.07;54.40;102134.00;7287613;19;152826;-50
2021/11/11 11:25:59;;;;;;;;;;;;;;;21.03;54.60;102132.88;7284987;19;153258;-50
2021/11/11 11:28:28;;;;;;;;;;;;;;;21.05;54.47;102128.66;7284966;19;151886;-50
2021/11/11 11:30:57;;;;;;;;;;;;;;;21.04;54.45;102124.16;7284429;19;153125;-50
2021/11/11 11:35:55;;;;;;;;;;;;;;;21.08;54.69;102122.47;7285025;19;152137;-50
2021/11/11 11:38:23;;;;;;;;;;;;;;;21.06;54.48;102115.44;7292725;19;153893;-49
2021/11/11 11:40:56;;;;;;;;;;;;;;;21.04;54.66;102110.09;7282028;19;151846;-49
2021/11/11 11:43:26;;;;;;;;;;;;;;;21.06;54.73;102113.47;7286828;19;153616;-50
2021/11/11 11:45:53;;;;;;;;;;;;;;;21.04;54.79;102107.28;7279021;19;153288;-50
2021/11/11 11:48:23;;;;;;;;;;;;;;;21.06;54.49;102101.41;7281216;19;152000;-50
2021/11/11 11:50:55;;;;;;;;;;;;;;;21.02;54.76;102100.28;7284389;19;152543;-50
2021/11/11 11:53:26;;;;;;;;;;;;;;;21.04;54.67;102095.19;7285106;19;153771;-50
2021/11/11 11:56:02;;;;;;;;;;;;;;;21.05;54.59;102096.91;7285360;19;151827;-50
2021/11/11 12:09:27;;;;;;;;;;;;;;;20.99;54.29;102090.44;7283729;19;152311;-50
2021/11/11 12:12:11;;;;;;;;;;;;;;;21.01;53.75;102095.78;7279597;19;153408;-50
2021/11/11 12:14:45;;;;;;;;;;;;;;;21.01;53.91;102092.97;7284534;19;153289;-50
2021/11/11 12:17:28;;;;;;;;;;;;;;;21.03;53.91;102077.50;7284598;19;151775;-50
2021/11/11 12:40:26;;;;;;;;;;;;;;;20.97;54.15;102070.22;7282003;19;152962;-49
2021/11/11 12:42:55;;;;;;;;;;;;;;;20.95;54.02;102072.47;7281401;19;153832;-50
2021/11/11 12:45:36;;;;;;;;;;;;;;;20.98;53.91;102062.66;7281587;19;152134;-50
2021/11/11 12:48:18;;;;;;;;;;;;;;;20.96;53.88;102057.31;7283728;19;152584;-49
2021/11/11 12:50:48;;;;;;;;;;;;;;;20.94;53.94;102056.72;7281372;19;151728;-49
2021/11/11 12:53:19;;;;;;;;;;;;;;;20.95;53.66;102060.38;7279171;19;153394;-50
2021/11/11 12:56:10;;;;;;;;;;;;;;;20.95;53.57;102057.56;7282929;19;154244;-50
2021/11/11 12:58:40;;;;;;;;;;;;;;;20.92;53.78;102049.72;7281700;19;152263;-50
2021/11/11 13:01:10;;;;;;;;;;;;;;;20.92;53.75;102046.91;7283473;19;153317;-50
2021/11/11 13:03:41;;;;;;;;;;;;;;;20.90;54.09;102047.19;7278242;19;153481;-50
2021/11/11 13:06:08;;;;;;;;;;;;;;;20.85;53.98;102044.38;7283098;19;151589;-49
2021/11/11 13:08:40;;;;;;;;;;;;;;;20.86;53.90;102044.13;7279855;19;153334;-50
2021/11/11 13:11:12;;;;;;;;;;;;;;;20.85;54.04;102039.63;7288413;19;153336;-50
2021/11/11 13:13:39;;;;;;;;;;;;;;;20.80;54.38;102038.81;7281737;19;152859;-50
2021/11/11 13:16:08;;;;;;;;;;;;;;;20.80;54.29;102034.00;7279943;19;154007;-50
2021/11/11 13:18:38;;;;;;;;;;;;;;;20.82;54.00;102033.72;7282504;19;151951;-50
2021/11/11 13:21:10;;;;;;;;;;;;;;;20.77;54.40;102026.16;7281496;19;152671;-49
2021/11/11 13:23:45;;;;;;;;;;;;;;;20.75;54.38;102030.38;7280333;19;154187;-50
2021/11/11 13:43:40;;;;;;;;;;;;;;;20.73;54.40;102024.19;7283546;19;152637;-50
2021/11/11 13:58:46;;;;;;;;;;;;;;;20.59;54.20;102007.09;7289331;19;151892;-49
2021/11/11 14:27:47;;;;;;;;;;;;;;;20.54;54.39;102004.28;7285613;19;152408;-49
2021/11/11 15:14:45;;;;;;;;;;;;;;;20.36;54.90;101974.00;7282376;19;153550;-50
2021/11/11 15:19:53;;;;;;;;;;;;;;;20.37;54.67;101964.44;7283585;19;154041;-49
2021/11/11 15:46:09;;;;;;;;;;;;;;;20.64;55.08;101945.31;7284078;19;152021;-50
2021/11/11 16:00:54;;;;;;;;;;;;;;;20.92;55.43;101949.44;7283347;19;153832;-49